Portada
METAR-TAF:

METAR-TAF

Aeropuertos :

Aeropuerto de Oslo-Gardermoen

Oslo, Noruega

latitud: 60-12N, longitud: 011-05E, altitud: 208 m

Observación

El informe se hizo hace 7 minutos, a las 21:20 UTC
Viento 3 kt del norte-noroeste, variando entre oeste-noroeste y norte
Temperatura 3°C
Humedad 93%
Presión 1040 hPa
Visibilidad 10 km o más
Escasas nubes a una altura de 800 ft
Nubes dispersas a una altura de 17000 ft

METAR: ENGM 172120Z 33003KT 290V360 9999 FEW008 SCT170 03/02 Q1040 NOSIG

Hora: 22:27 (21:27 UTC)

Pronóstico

Pronóstico válido del 17 a las 18 UTC al 18 a las 18 UTC
Viento 5 kt del norte
Visibilidad 10 km o más
Nubes dispersas a una altura de 1200 ft
Temporalmente
del 17 a las 18 UTC al 17 a las 22 UTC
Cielo nuboso a una altura de 800 ft

TAF: ENGM 1718/1818 36005KT 9999 SCT012 TEMPO 1718/1722 BKN008

Observaciones y pronósticos meteorológicos de más de 4000 aeropuertos (mensajes METAR y TAF).

Los puntos amarillos y rojos representan las estaciones disponibles.

Ponga el ratón en el punto deseado para ver el nombre de la estación.

Haga clic para ver las observaciones y los pronósticos meteorológicos.

Para cambiar el mapa : haga clic en los botones verdes con una cruz de color negro para hacer un zoom, en el botón verde con un guión para alejar o en las flechas verdes para mapas adyacentes.


METAR-TAF: